Time;durP1;ratioP1;P1;durP2;ratioP2;P2;SDS_P1;SDS_P2;PMS_P1;PMS_P2;Temp;Humidity;BMP_temperature;BMP_pressure;BME280_temperature;BME280_humidity;BME280_pressure;Samples;Min_cycle;Max_cycle;Signal;HPM_P1;HPM_P2
2022/08/25 00:01:10;;;;;;;9.55;5.88;;;;;;;19.66;72.67;94694.66;5075826;28;20060;-81
2022/08/25 00:03:35;;;;;;;17.80;6.78;;;;;;;19.67;72.51;94690.19;5058202;28;20127;-81
2022/08/25 00:06:03;;;;;;;15.57;6.10;;;;;;;19.61;72.72;94679.38;5092491;28;20028;-81
2022/08/25 00:08:29;;;;;;;15.18;6.32;;;;;;;19.70;72.30;94689.84;5059395;28;20122;-81
2022/08/25 00:10:54;;;;;;;13.32;5.78;;;;;;;19.67;72.28;94687.56;5075883;28;20024;-81
2022/08/25 00:13:20;;;;;;;16.45;6.13;;;;;;;19.70;72.42;94685.38;5075510;28;20032;-81
2022/08/25 00:15:45;;;;;;;14.80;6.38;;;;;;;19.73;72.49;94681.56;5092327;28;20029;-81
2022/08/25 00:18:11;;;;;;;15.73;6.30;;;;;;;19.72;72.54;94669.38;5092672;28;20032;-82
2022/08/25 00:20:36;;;;;;;15.30;6.07;;;;;;;19.66;72.01;94662.22;5075566;28;20036;-81
2022/08/25 00:23:02;;;;;;;12.60;6.38;;;;;;;19.62;72.26;94653.84;5092660;28;20028;-81
2022/08/25 00:25:27;;;;;;;13.90;6.85;;;;;;;19.74;71.89;94672.66;5093372;28;20027;-82
2022/08/25 00:27:53;;;;;;;12.50;6.05;;;;;;;19.64;72.26;94660.56;5092296;28;20032;-81
2022/08/25 00:30:19;;;;;;;10.65;5.68;;;;;;;19.71;72.04;94667.75;5075414;28;20028;-81
2022/08/25 00:32:44;;;;;;;13.75;6.03;;;;;;;19.66;72.63;94667.50;5092202;28;20036;-81
2022/08/25 00:35:10;;;;;;;13.05;6.03;;;;;;;19.56;72.40;94667.78;5091887;28;20438;-82
2022/08/25 00:37:36;;;;;;;11.90;6.05;;;;;;;19.60;72.29;94675.09;5092121;28;20478;-81
2022/08/25 00:40:02;;;;;;;14.48;6.28;;;;;;;19.57;72.74;94686.00;5092181;28;20406;-81
2022/08/25 00:42:27;;;;;;;12.77;6.30;;;;;;;19.57;72.29;94691.28;5075236;28;20028;-81
2022/08/25 00:44:53;;;;;;;16.80;6.35;;;;;;;19.52;72.48;94683.13;5091606;28;20043;-81
2022/08/25 00:47:18;;;;;;;15.48;6.40;;;;;;;19.56;72.67;94689.66;5092078;28;20043;-81
2022/08/25 00:49:46;;;;;;;13.20;6.40;;;;;;;19.55;72.33;94688.00;5058249;28;20418;-81
2022/08/25 00:52:12;;;;;;;13.15;5.82;;;;;;;19.55;72.70;94689.84;5075090;28;20068;-81
2022/08/25 00:54:39;;;;;;;18.40;6.45;;;;;;;19.46;72.59;94668.06;5092630;28;20064;-81
2022/08/25 00:57:05;;;;;;;15.15;6.55;;;;;;;19.54;72.61;94681.13;5091835;28;20038;-81
2022/08/25 00:59:31;;;;;;;15.57;6.07;;;;;;;19.56;72.67;94676.50;5074829;28;20028;-81
2022/08/25 01:01:57;;;;;;;15.45;6.00;;;;;;;19.57;72.52;94678.09;5058007;28;20044;-81
2022/08/25 01:04:23;;;;;;;12.73;6.00;;;;;;;19.51;72.63;94659.59;5091316;28;20028;-81
2022/08/25 01:06:48;;;;;;;12.98;6.20;;;;;;;19.43;72.55;94648.16;5074730;28;20036;-81
2022/08/25 01:09:14;;;;;;;16.65;6.45;;;;;;;19.57;72.70;94669.41;5057916;28;20060;-81
2022/08/25 01:11:40;;;;;;;17.55;6.57;;;;;;;19.59;72.47;94656.84;5074648;28;20032;-81
2022/08/25 01:14:06;;;;;;;15.25;6.88;;;;;;;19.56;72.43;94654.59;5074253;28;20036;-81
2022/08/25 01:16:35;;;;;;;14.73;5.97;;;;;;;19.55;72.38;94651.13;5074330;28;20042;-81
2022/08/25 01:19:01;;;;;;;18.92;6.45;;;;;;;19.58;72.23;94650.75;5074544;28;20093;-81
2022/08/25 01:21:27;;;;;;;15.63;5.80;;;;;;;19.31;72.08;94606.72;5091279;28;20456;-81
2022/08/25 01:23:54;;;;;;;14.15;6.90;;;;;;;19.56;72.34;94649.34;5074070;28;20094;-81
2022/08/25 01:26:21;;;;;;;10.15;5.80;;;;;;;19.50;72.59;94647.41;5074842;28;20035;-81
2022/08/25 01:31:31;;;;;;;18.88;6.50;;;;;;;19.57;72.41;94653.59;5091555;28;20030;-81
2022/08/25 01:33:57;;;;;;;13.73;6.63;;;;;;;19.41;72.62;94633.56;5057391;28;20031;-81
2022/08/25 01:36:23;;;;;;;14.60;6.45;;;;;;;19.45;72.53;94637.47;5090677;28;20035;-81
2022/08/25 01:38:48;;;;;;;18.05;6.60;;;;;;;19.61;72.56;94655.69;5074064;28;20043;-81
2022/08/25 01:41:45;;;;;;;12.15;6.60;;;;;;;19.59;72.67;94644.50;5074071;28;20406;-81
2022/08/25 01:44:10;;;;;;;20.15;6.90;;;;;;;19.69;72.38;94664.47;5070611;28;20135;-81
2022/08/25 01:46:36;;;;;;;14.55;6.15;;;;;;;19.73;72.61;94657.84;5057548;28;20028;-81
2022/08/25 01:49:01;;;;;;;14.25;6.30;;;;;;;19.75;72.67;94654.03;5091695;28;20484;-81
2022/08/25 01:51:28;;;;;;;16.83;6.22;;;;;;;19.60;72.91;94632.94;5073835;28;20113;-81
2022/08/25 01:53:53;;;;;;;13.93;6.28;;;;;;;19.81;72.63;94652.47;5073754;28;20055;-81
2022/08/25 01:56:19;;;;;;;10.35;5.72;;;;;;;19.77;72.75;94643.28;5073812;28;20494;-81
2022/08/25 01:58:47;;;;;;;13.80;6.47;;;;;;;19.81;72.54;94639.28;5073569;28;20406;-81
2022/08/25 02:01:19;;;;;;;11.73;5.60;;;;;;;19.80;73.01;94642.91;5073630;28;20051;-81
2022/08/25 02:03:46;;;;;;;12.13;6.30;;;;;;;19.75;72.67;94626.84;5073809;28;20038;-81
2022/08/25 02:06:12;;;;;;;14.68;6.60;;;;;;;19.82;72.21;94640.91;5090765;28;20036;-81
2022/08/25 02:08:38;;;;;;;14.40;6.70;;;;;;;19.83;72.44;94637.25;5073664;28;20028;-81
2022/08/25 02:11:04;;;;;;;11.20;6.63;;;;;;;19.88;72.54;94636.69;5073621;28;20024;-80
2022/08/25 02:13:29;;;;;;;11.30;6.70;;;;;;;19.91;72.41;94638.97;5073616;28;20085;-81
2022/08/25 02:15:55;;;;;;;13.00;6.32;;;;;;;19.91;72.19;94629.22;5056872;28;20032;-80
2022/08/25 02:18:21;;;;;;;14.05;6.78;;;;;;;19.66;72.23;94598.97;5056945;28;20039;-81
2022/08/25 02:20:46;;;;;;;16.30;6.88;;;;;;;19.89;72.25;94625.16;5090151;28;20032;-81
2022/08/25 02:23:12;;;;;;;15.73;7.15;;;;;;;19.77;72.04;94611.66;5073574;28;20158;-81
2022/08/25 02:25:38;;;;;;;12.20;6.75;;;;;;;19.85;71.92;94628.16;5090449;28;20040;-81
2022/08/25 02:28:04;;;;;;;17.73;6.93;;;;;;;19.71;71.82;94607.16;5056097;28;20035;-81
2022/08/25 02:30:29;;;;;;;12.25;7.07;;;;;;;19.79;72.27;94626.28;5056422;28;20036;-81
2022/08/25 02:32:56;;;;;;;12.48;7.03;;;;;;;19.82;72.42;94625.91;5073451;28;20043;-81
2022/08/25 02:35:21;;;;;;;15.15;7.20;;;;;;;19.83;72.29;94626.72;5090282;28;20107;-81
2022/08/25 02:37:47;;;;;;;16.40;7.40;;;;;;;19.70;72.19;94605.53;5073553;28;20055;-81
2022/08/25 02:40:12;;;;;;;14.85;6.95;;;;;;;19.80;72.14;94627.91;5072914;28;20485;-81
2022/08/25 02:42:38;;;;;;;19.25;7.88;;;;;;;19.75;71.98;94614.50;5073389;28;20034;-81
2022/08/25 02:45:06;;;;;;;14.35;7.38;;;;;;;19.86;71.95;94631.59;5090162;28;20177;-81
2022/08/25 02:47:31;;;;;;;17.67;7.93;;;;;;;19.76;71.99;94618.75;5090123;28;20507;-82
2022/08/25 02:49:57;;;;;;;16.48;7.43;;;;;;;19.62;73.14;94638.03;5072830;28;20032;-81
2022/08/25 02:52:24;;;;;;;16.45;8.35;;;;;;;19.45;73.66;94634.81;5091339;28;20505;-81
2022/08/25 02:54:49;;;;;;;17.73;7.78;;;;;;;19.37;74.19;94645.47;5073414;28;20600;-81
2022/08/25 02:57:15;;;;;;;18.75;8.07;;;;;;;19.26;74.22;94643.31;5073242;28;20036;-81
2022/08/25 02:59:40;;;;;;;14.30;8.00;;;;;;;19.31;74.28;94647.03;5073580;28;20039;-81
2022/08/25 03:02:06;;;;;;;14.75;7.47;;;;;;;19.19;74.20;94636.16;5093570;28;20027;-81
2022/08/25 03:04:31;;;;;;;11.15;7.30;;;;;;;19.15;74.53;94645.41;5076611;28;20095;-81
2022/08/25 03:06:57;;;;;;;11.73;7.50;;;;;;;19.28;74.54;94651.81;5076404;28;20421;-81
2022/08/25 03:09:23;;;;;;;14.23;7.05;;;;;;;19.30;74.08;94641.94;5092979;28;20035;-81
2022/08/25 03:11:49;;;;;;;12.75;7.38;;;;;;;19.28;74.22;94638.66;5093320;28;20028;-81
2022/08/25 03:14:14;;;;;;;13.80;7.25;;;;;;;19.30;74.10;94639.28;5093450;28;20031;-81
2022/08/25 03:16:42;;;;;;;17.27;7.68;;;;;;;19.20;74.41;94645.69;5076213;28;20404;-81
2022/08/25 03:19:08;;;;;;;18.50;7.93;;;;;;;19.13;74.02;94631.59;5111407;28;20110;-81
2022/08/25 03:21:34;;;;;;;14.13;8.10;;;;;;;19.18;73.87;94644.22;5111412;28;20059;-81
2022/08/25 03:23:59;;;;;;;17.35;7.72;;;;;;;19.25;73.86;94655.66;5076201;28;20036;-81
2022/08/25 03:29:09;;;;;;;13.73;7.78;;;;;;;19.11;74.06;94641.53;5095836;28;20105;-81
2022/08/25 03:31:35;;;;;;;16.55;7.90;;;;;;;19.20;73.86;94648.31;5059940;28;20020;-81
2022/08/25 03:34:00;;;;;;;13.95;7.88;;;;;;;19.22;74.26;94663.09;5076125;28;20044;-81
2022/08/25 03:36:26;;;;;;;9.90;7.50;;;;;;;19.23;74.06;94662.13;5093011;28;20058;-81
2022/08/25 03:38:52;;;;;;;12.68;8.32;;;;;;;19.14;74.51;94649.06;5095099;28;20028;-81
2022/08/25 03:41:20;;;;;;;15.82;8.68;;;;;;;19.10;74.36;94637.25;5079837;28;20565;-81
2022/08/25 03:43:45;;;;;;;14.50;8.23;;;;;;;19.24;74.25;94658.47;5080063;28;20023;-81
2022/08/25 03:46:22;;;;;;;17.48;8.68;;;;;;;19.22;74.38;94660.47;5096562;28;20115;-81
2022/08/25 03:48:48;;;;;;;12.68;8.02;;;;;;;19.22;74.48;94649.94;5096489;28;20039;-81
2022/08/25 03:51:28;;;;;;;10.63;7.18;;;;;;;19.22;74.43;94644.66;5062637;28;20551;-81
2022/08/25 03:53:53;;;;;;;19.55;8.23;;;;;;;19.16;74.63;94633.88;5079182;28;20039;-81
2022/08/25 03:56:19;;;;;;;15.23;7.95;;;;;;;19.18;74.72;94647.66;5096508;28;20035;-81
2022/08/25 03:58:45;;;;;;;14.82;7.93;;;;;;;19.12;74.56;94643.16;5079537;28;20031;-81
2022/08/25 04:01:10;;;;;;;14.00;7.32;;;;;;;19.12;74.90;94634.44;5079077;28;20124;-81
2022/08/25 04:03:36;;;;;;;14.80;7.55;;;;;;;19.15;74.96;94637.50;5062423;28;20032;-80
2022/08/25 04:06:02;;;;;;;13.13;7.22;;;;;;;19.21;74.73;94649.13;5079140;28;20077;-81
2022/08/25 04:08:28;;;;;;;14.60;7.70;;;;;;;19.18;74.74;94634.50;5079686;28;20032;-81
2022/08/25 04:10:54;;;;;;;12.45;7.25;;;;;;;19.30;74.89;94644.56;5062191;28;20031;-81
2022/08/25 04:13:19;;;;;;;13.00;7.97;;;;;;;19.27;75.43;94631.78;5096090;28;20043;-81
2022/08/25 04:15:45;;;;;;;13.57;7.68;;;;;;;19.32;75.24;94634.66;5079463;28;20114;-81
2022/08/25 04:18:11;;;;;;;14.00;7.30;;;;;;;19.38;75.23;94639.19;5078908;28;20027;-81
2022/08/25 04:20:37;;;;;;;12.85;7.00;;;;;;;19.34;75.25;94625.59;5078984;28;20085;-80
2022/08/25 04:23:02;;;;;;;14.50;7.53;;;;;;;19.22;75.73;94605.16;5095872;28;20035;-81
2022/08/25 04:25:28;;;;;;;11.13;7.15;;;;;;;19.38;75.41;94633.91;5095755;28;20102;-81
2022/08/25 04:27:54;;;;;;;10.68;7.38;;;;;;;19.45;75.59;94632.19;5078993;28;20062;-81
2022/08/25 04:30:20;;;;;;;13.95;6.53;;;;;;;19.46;75.10;94625.91;5078527;28;20055;-81
2022/08/25 04:32:47;;;;;;;15.18;7.68;;;;;;;19.46;74.91;94623.28;5078932;28;20042;-81
2022/08/25 04:35:13;;;;;;;13.63;6.85;;;;;;;19.55;74.91;94632.69;5078761;28;20501;-82
2022/08/25 04:37:38;;;;;;;14.32;7.38;;;;;;;19.56;74.91;94629.06;5114185;28;20035;-81
2022/08/25 04:40:04;;;;;;;20.48;7.13;;;;;;;19.60;74.86;94645.31;5113351;28;20039;-81
2022/08/25 04:42:30;;;;;;;14.70;6.97;;;;;;;19.64;74.70;94647.41;5078791;28;20050;-81
2022/08/25 04:44:56;;;;;;;15.98;7.05;;;;;;;19.69;74.25;94646.03;5078347;28;20067;-81
2022/08/25 04:47:21;;;;;;;13.68;7.80;;;;;;;19.72;74.13;94646.47;5078407;28;20031;-81
2022/08/25 04:49:47;;;;;;;15.90;7.32;;;;;;;19.75;74.45;94648.75;5060776;28;20059;-81
2022/08/25 04:52:12;;;;;;;13.10;7.28;;;;;;;19.81;74.56;94641.91;5094996;28;20415;-81
2022/08/25 04:54:38;;;;;;;12.05;7.05;;;;;;;19.87;74.75;94651.69;5061389;28;20041;-81
2022/08/25 04:57:04;;;;;;;17.30;7.22;;;;;;;19.85;75.63;94653.69;5078118;28;20028;-82
2022/08/25 04:59:29;;;;;;;13.57;7.32;;;;;;;19.88;75.88;94650.69;5094678;28;20063;-81
2022/08/25 05:01:56;;;;;;;15.10;7.80;;;;;;;19.81;75.89;94634.81;5113035;28;20570;-81
2022/08/25 05:04:21;;;;;;;13.43;8.43;;;;;;;19.75;75.63;94629.47;5061596;28;20114;-81
2022/08/25 05:06:47;;;;;;;16.83;8.98;;;;;;;19.78;75.35;94640.47;5078009;28;20499;-81
2022/08/25 05:09:12;;;;;;;10.98;7.75;;;;;;;19.91;75.17;94646.88;5094793;28;20034;-81
2022/08/25 05:11:38;;;;;;;12.45;7.30;;;;;;;19.91;76.04;94652.94;5113024;28;20485;-81
2022/08/25 05:14:04;;;;;;;14.85;7.32;;;;;;;19.78;76.23;94623.81;5094848;28;20039;-81
2022/08/25 05:16:29;;;;;;;18.02;8.13;;;;;;;19.99;76.43;94647.56;5094711;28;20084;-81
2022/08/25 05:18:55;;;;;;;12.60;8.35;;;;;;;19.97;75.56;94622.38;5094289;28;20554;-81
2022/08/25 05:21:25;;;;;;;20.75;7.93;;;;;;;20.06;75.81;94639.72;5094656;28;20313;-80
2022/08/25 05:23:56;;;;;;;16.80;8.25;;;;;;;20.07;75.41;94615.78;5077343;28;20028;-81
2022/08/25 05:26:21;;;;;;;12.32;8.20;;;;;;;20.23;74.73;94643.72;5061766;28;20309;-81
2022/08/25 05:28:50;;;;;;;11.52;7.20;;;;;;;20.30;74.83;94638.47;5077727;28;20039;-81
2022/08/25 05:31:16;;;;;;;13.50;7.60;;;;;;;20.36;74.93;94632.44;5077777;28;20019;-81
2022/08/25 05:33:42;;;;;;;12.23;7.85;;;;;;;20.40;74.99;94631.06;5077350;28;20065;-81
2022/08/25 05:36:08;;;;;;;15.85;8.75;;;;;;;20.37;73.28;94631.44;5077687;28;20466;-81
2022/08/25 05:38:34;;;;;;;13.30;8.05;;;;;;;20.41;73.48;94623.94;5077803;28;20405;-81
2022/08/25 05:41:04;;;;;;;19.15;9.32;;;;;;;20.53;72.87;94638.25;5077087;28;20040;-80
2022/08/25 05:43:30;;;;;;;14.60;7.95;;;;;;;20.48;71.58;94628.28;5077729;28;20077;-81
2022/08/25 05:45:56;;;;;;;13.10;7.45;;;;;;;20.53;71.29;94641.75;5077069;28;20486;-81
2022/08/25 05:48:22;;;;;;;16.77;8.30;;;;;;;20.63;71.69;94640.59;5077504;28;20034;-81
2022/08/25 05:50:53;;;;;;;18.25;8.00;;;;;;;20.58;70.58;94629.78;5060285;28;20055;-81
2022/08/25 05:53:19;;;;;;;15.25;8.10;;;;;;;20.73;71.05;94627.88;5077226;28;20493;-81
2022/08/25 05:55:45;;;;;;;16.77;7.93;;;;;;;20.82;70.40;94629.31;5060151;28;20520;-81
2022/08/25 05:58:10;;;;;;;18.27;8.30;;;;;;;20.95;71.24;94634.69;5059980;28;20027;-81
2022/08/25 06:00:37;;;;;;;15.50;8.07;;;;;;;21.04;70.41;94634.53;5090021;28;20059;-81
2022/08/25 06:03:02;;;;;;;20.98;7.82;;;;;;;21.11;70.21;94638.00;5090645;28;20059;-82
2022/08/25 06:05:28;;;;;;;12.55;7.53;;;;;;;21.19;69.23;94643.13;5090156;28;20532;-81
2022/08/25 06:07:54;;;;;;;15.10;7.78;;;;;;;21.23;68.85;94633.81;5090266;28;20024;-81
2022/08/25 06:10:20;;;;;;;16.30;8.30;;;;;;;21.34;69.13;94643.81;5091410;28;20551;-81
2022/08/25 06:12:47;;;;;;;15.13;8.10;;;;;;;21.10;68.12;94599.41;5091468;28;20048;-81
2022/08/25 06:15:15;;;;;;;19.63;8.02;;;;;;;21.44;67.66;94645.28;5090022;28;20035;-81
2022/08/25 06:17:41;;;;;;;18.10;7.40;;;;;;;21.27;67.18;94613.09;5091150;28;20097;-81
2022/08/25 06:20:18;;;;;;;16.83;7.93;;;;;;;21.26;67.70;94595.63;5073154;28;20031;-81
2022/08/25 06:22:44;;;;;;;17.02;7.60;;;;;;;21.56;66.67;94638.41;5073230;28;20047;-80
2022/08/25 06:25:10;;;;;;;16.83;8.60;;;;;;;21.55;67.27;94634.13;5090076;28;20119;-81
2022/08/25 06:27:36;;;;;;;17.38;7.90;;;;;;;21.60;66.89;94627.25;5090046;28;20036;-81
2022/08/25 06:30:03;;;;;;;12.40;7.75;;;;;;;21.68;66.79;94634.19;5091357;28;20026;-81
2022/08/25 06:32:33;;;;;;;20.27;8.20;;;;;;;21.78;66.83;94637.22;5089791;28;20036;-81
2022/08/25 06:34:58;;;;;;;20.87;7.97;;;;;;;21.85;66.13;94635.44;5091084;28;20161;-81
2022/08/25 06:37:25;;;;;;;15.88;7.97;;;;;;;21.90;65.55;94640.13;5091437;28;20399;-81
2022/08/25 06:39:50;;;;;;;16.02;7.85;;;;;;;21.81;65.50;94606.94;5090951;28;20047;-81
2022/08/25 06:42:16;;;;;;;16.40;7.47;;;;;;;21.70;64.82;94603.06;5072848;28;20494;-81
2022/08/25 06:44:41;;;;;;;22.10;8.68;;;;;;;21.96;65.73;94638.50;5089677;28;20039;-81
2022/08/25 06:47:07;;;;;;;25.58;8.27;;;;;;;22.00;65.22;94640.53;5090916;28;20505;-81
2022/08/25 06:49:32;;;;;;;21.15;7.88;;;;;;;22.07;65.01;94640.56;5090867;28;20020;-81
2022/08/25 06:51:58;;;;;;;12.13;7.70;;;;;;;22.20;65.31;94635.28;5090852;28;20032;-81
2022/08/25 06:54:24;;;;;;;18.65;8.25;;;;;;;22.24;64.48;94647.09;5090589;28;20465;-81
2022/08/25 06:56:50;;;;;;;15.05;7.85;;;;;;;22.36;64.45;94635.91;5090908;28;20466;-83
2022/08/25 06:59:16;;;;;;;18.77;8.02;;;;;;;22.36;63.99;94633.25;5090795;28;20484;-82
2022/08/25 07:01:42;;;;;;;16.38;7.70;;;;;;;22.36;63.98;94623.47;5108489;28;20056;-82
2022/08/25 07:04:07;;;;;;;16.85;8.00;;;;;;;22.54;64.39;94625.53;5111327;28;20031;-82
2022/08/25 07:06:36;;;;;;;20.15;7.13;;;;;;;22.64;64.31;94630.38;5093019;28;20139;-82
2022/08/25 07:09:03;;;;;;;21.10;8.00;;;;;;;22.72;64.30;94615.09;5077238;28;20028;-82
2022/08/25 07:11:33;;;;;;;16.58;7.38;;;;;;;22.93;61.88;94629.94;5059213;28;20028;-82
2022/08/25 07:14:01;;;;;;;20.33;7.82;;;;;;;22.99;61.88;94623.03;5079770;28;20569;-82
2022/08/25 07:16:27;;;;;;;16.23;6.90;;;;;;;23.05;62.15;94608.94;5079880;28;20024;-82
2022/08/25 07:18:55;;;;;;;13.18;5.53;;;;;;;23.19;60.48;94618.47;5079709;28;20410;-82
2022/08/25 07:21:22;;;;;;;15.00;6.07;;;;;;;23.39;60.74;94625.50;5079790;28;20405;-82
2022/08/25 07:23:47;;;;;;;16.40;6.45;;;;;;;23.57;60.60;94635.44;5096480;28;20038;-82
2022/08/25 07:26:20;;;;;;;16.40;5.95;;;;;;;23.70;59.60;94629.22;5096499;28;20440;-82
2022/08/25 07:28:46;;;;;;;14.20;6.00;;;;;;;23.66;58.81;94628.84;5079988;28;20035;-82
2022/08/25 07:31:12;;;;;;;12.80;5.50;;;;;;;23.73;58.37;94623.53;5079492;28;20020;-82
2022/08/25 07:33:37;;;;;;;17.00;5.82;;;;;;;23.93;57.96;94634.00;5063012;28;20070;-82
2022/08/25 07:36:03;;;;;;;14.20;5.97;;;;;;;23.91;57.64;94610.38;5062696;28;20494;-82
2022/08/25 07:38:28;;;;;;;9.52;5.15;;;;;;;24.14;57.99;94628.38;5079152;28;20119;-82
2022/08/25 07:41:01;;;;;;;17.83;5.70;;;;;;;23.97;57.63;94583.00;5062847;28;20165;-82
2022/08/25 07:43:27;;;;;;;12.50;5.45;;;;;;;24.27;56.76;94615.00;5079183;28;20031;-82
2022/08/25 07:45:52;;;;;;;16.63;5.75;;;;;;;24.43;56.89;94624.31;5079374;28;20036;-82
2022/08/25 07:48:19;;;;;;;14.80;5.43;;;;;;;24.53;56.66;94616.63;5079319;28;20042;-82
2022/08/25 07:50:45;;;;;;;15.25;5.18;;;;;;;24.72;55.90;94620.16;5079549;28;20035;-82
2022/08/25 07:53:11;;;;;;;14.90;5.35;;;;;;;24.74;55.58;94618.09;5095818;28;20527;-82
2022/08/25 07:55:37;;;;;;;14.90;5.28;;;;;;;24.91;55.18;94623.66;5062451;28;20498;-82
2022/08/25 07:58:03;;;;;;;17.95;5.47;;;;;;;25.02;54.48;94631.91;5095892;28;20042;-82
2022/08/25 08:00:32;;;;;;;17.77;5.57;;;;;;;25.07;53.97;94624.06;5078812;28;20463;-82
2022/08/25 08:02:58;;;;;;;15.82;5.57;;;;;;;25.15;53.59;94627.28;5079769;28;20122;-82
2022/08/25 08:05:24;;;;;;;16.08;5.20;;;;;;;25.13;53.69;94618.69;5095754;28;20504;-81
2022/08/25 08:07:49;;;;;;;19.80;5.22;;;;;;;25.25;53.78;94621.47;5078865;28;20035;-82
2022/08/25 08:10:15;;;;;;;20.63;5.15;;;;;;;25.32;52.46;94626.69;5078838;28;20476;-81
2022/08/25 08:12:41;;;;;;;24.20;6.38;;;;;;;25.34;52.34;94622.78;5113410;28;20084;-81
2022/08/25 08:15:07;;;;;;;24.50;5.97;;;;;;;25.29;52.38;94601.34;5078930;28;20118;-81
2022/08/25 08:17:32;;;;;;;21.88;5.95;;;;;;;25.41;52.69;94599.59;5113865;28;20038;-82
2022/08/25 08:19:58;;;;;;;22.88;6.13;;;;;;;25.56;52.19;94611.66;5095277;28;20028;-81
2022/08/25 08:22:23;;;;;;;24.33;5.30;;;;;;;25.60;51.57;94612.81;5078767;28;20039;-81
2022/08/25 08:24:49;;;;;;;24.58;5.30;;;;;;;25.66;50.90;94611.94;5077437;28;20032;-82
2022/08/25 08:27:14;;;;;;;20.83;5.35;;;;;;;25.68;50.52;94604.53;5095172;28;20032;-81
2022/08/25 08:29:40;;;;;;;20.70;5.65;;;;;;;25.72;50.68;94605.72;5095130;28;20107;-82
2022/08/25 08:32:07;;;;;;;27.00;6.72;;;;;;;25.70;50.30;94586.50;5113518;28;20035;-82
2022/08/25 08:34:33;;;;;;;24.73;8.93;;;;;;;25.70;50.23;94591.84;5078204;28;20026;-81
2022/08/25 08:36:58;;;;;;;29.25;6.65;;;;;;;25.79;50.16;94595.78;5078234;28;20028;-82
2022/08/25 08:39:25;;;;;;;24.95;6.03;;;;;;;25.78;49.83;94596.84;5113415;28;20028;-82
2022/08/25 08:44:43;;;;;;;19.13;5.63;;;;;;;25.94;50.44;94602.59;5113489;28;20038;-82
2022/08/25 08:47:27;;;;;;;16.70;5.25;;;;;;;26.01;50.27;94597.97;5094945;28;20034;-82
2022/08/25 08:50:22;;;;;;;21.92;5.40;;;;;;;26.01;49.51;94576.69;5113124;28;20044;-82
2022/08/25 08:52:59;;;;;;;28.60;5.80;;;;;;;26.11;49.12;94592.91;5097481;28;20051;-81
2022/08/25 08:55:58;;;;;;;26.45;5.15;;;;;;;25.91;48.41;94555.13;5078001;28;20390;-81
2022/08/25 08:58:45;;;;;;;30.02;4.93;;;;;;;26.29;47.00;94599.97;5094394;28;20043;-83
2022/08/25 09:01:12;;;;;;;20.70;5.13;;;;;;;26.32;46.97;94596.06;5112850;28;20054;-82
2022/08/25 09:03:52;;;;;;;23.40;4.90;;;;;;;26.11;44.51;94598.22;5094754;28;20063;-82
2022/08/25 09:06:24;;;;;;;22.65;5.10;;;;;;;26.10;44.90;94606.44;5094726;28;20523;-82
2022/08/25 09:08:56;;;;;;;16.17;4.63;;;;;;;26.07;45.89;94578.41;5077665;28;20043;-82
2022/08/25 09:11:43;;;;;;;23.33;5.45;;;;;;;26.12;46.16;94596.38;5061459;28;20036;-81
2022/08/25 09:14:18;;;;;;;27.33;5.07;;;;;;;26.12;45.77;94583.88;5112652;28;20112;-81
2022/08/25 09:16:55;;;;;;;29.17;5.22;;;;;;;26.09;43.62;94597.63;5112323;28;20032;-81
2022/08/25 09:19:58;;;;;;;30.95;5.45;;;;;;;26.09;44.85;94597.63;5094245;28;20035;-82
2022/08/25 09:22:27;;;;;;;23.95;4.90;;;;;;;26.10;44.93;94591.25;5112924;28;20040;-81
2022/08/25 09:25:32;;;;;;;20.88;4.25;;;;;;;26.13;46.00;94585.47;5112343;28;20084;-80
2022/08/25 09:28:16;;;;;;;19.63;4.38;;;;;;;26.19;45.13;94579.25;5097018;28;20032;-80
2022/08/25 09:30:49;;;;;;;17.95;4.65;;;;;;;26.32;45.54;94578.22;5094090;28;20035;-82
2022/08/25 09:33:18;;;;;;;23.13;4.47;;;;;;;26.34;44.66;94562.03;5094361;28;20036;-82
2022/08/25 09:35:43;;;;;;;18.02;4.93;;;;;;;26.53;44.45;94576.88;5077382;28;20044;-82
2022/08/25 09:38:10;;;;;;;20.70;4.43;;;;;;;26.51;43.78;94578.97;5060616;28;20035;-82
2022/08/25 09:40:37;;;;;;;17.65;4.28;;;;;;;26.51;44.58;94568.31;5094056;28;20043;-82
2022/08/25 09:43:04;;;;;;;22.98;4.10;;;;;;;26.55;43.13;94555.34;5077168;28;20570;-82
2022/08/25 09:45:42;;;;;;;19.13;4.28;;;;;;;26.37;41.92;94553.56;5076936;28;20027;-82
2022/08/25 09:48:46;;;;;;;24.63;3.75;;;;;;;26.63;42.69;94574.44;5061022;28;20118;-82
2022/08/25 09:51:16;;;;;;;18.67;3.92;;;;;;;26.67;42.67;94574.78;5043746;28;20122;-82
2022/08/25 09:53:48;;;;;;;19.30;3.90;;;;;;;26.69;43.18;94584.19;5111721;28;20188;-81
2022/08/25 09:56:13;;;;;;;16.58;4.05;;;;;;;26.69;42.77;94568.19;5093646;28;20078;-81
2022/08/25 09:58:39;;;;;;;20.50;4.28;;;;;;;26.78;42.80;94581.16;5093929;28;20477;-82
2022/08/25 10:01:12;;;;;;;20.50;3.92;;;;;;;26.53;41.92;94582.22;5076810;28;20052;-82
2022/08/25 10:04:04;;;;;;;19.15;3.70;;;;;;;26.51;41.95;94571.78;5077310;28;20038;-81
2022/08/25 10:06:43;;;;;;;18.08;3.60;;;;;;;26.49;43.00;94573.84;5062046;28;20111;-82
2022/08/25 10:09:08;;;;;;;21.45;3.70;;;;;;;26.32;43.00;94575.56;5076857;28;20110;-82
2022/08/25 10:11:43;;;;;;;25.52;4.82;;;;;;;26.34;43.78;94575.34;5060093;28;20027;-82
2022/08/25 10:14:20;;;;;;;20.88;5.20;;;;;;;26.42;44.05;94583.00;5076924;28;20031;-81
2022/08/25 10:16:47;;;;;;;28.08;5.05;;;;;;;26.44;43.42;94576.38;5111617;28;20468;-81
2022/08/25 10:19:28;;;;;;;19.10;4.00;;;;;;;26.40;43.99;94580.53;5076949;28;20050;-81
2022/08/25 10:22:10;;;;;;;25.35;4.25;;;;;;;26.43;42.91;94579.28;5093422;28;20031;-81
2022/08/25 10:24:36;;;;;;;22.23;4.22;;;;;;;26.34;43.59;94564.69;5111501;28;20027;-81
2022/08/25 10:27:20;;;;;;;25.00;4.50;;;;;;;26.41;44.26;94576.84;5076418;28;20405;-81
2022/08/25 10:30:02;;;;;;;19.48;4.38;;;;;;;26.50;43.27;94574.66;5095532;28;20023;-81
2022/08/25 10:32:46;;;;;;;19.67;3.67;;;;;;;26.48;43.71;94572.22;5093568;28;20104;-81
2022/08/25 10:35:15;;;;;;;19.58;3.80;;;;;;;26.51;43.82;94568.31;5111369;28;20032;-82
2022/08/25 10:38:18;;;;;;;22.17;4.18;;;;;;;26.51;44.44;94566.44;5076267;28;20039;-81
2022/08/25 10:40:48;;;;;;;18.38;3.95;;;;;;;26.46;44.04;94555.66;5093083;28;20609;-81
2022/08/25 10:43:22;;;;;;;;;;;;;;;26.51;43.51;94562.97;5077343;28;20481;-82
2022/08/25 10:45:52;;;;;;;19.33;3.83;;;;;;;26.50;43.76;94550.69;5093120;28;19919;-82
2022/08/25 10:48:33;;;;;;;17.30;4.22;;;;;;;26.57;44.48;94551.41;5078616;28;20035;-81
2022/08/25 10:51:01;;;;;;;19.58;3.78;;;;;;;26.63;42.08;94545.13;5097155;28;20049;-81
2022/08/25 10:53:38;;;;;;;25.38;4.30;;;;;;;26.74;44.33;94539.00;5097367;28;20043;-81
2022/08/25 10:56:24;;;;;;;19.77;3.58;;;;;;;26.79;43.16;94542.81;5115415;28;20027;-81
2022/08/25 10:59:14;;;;;;;15.82;3.65;;;;;;;26.83;43.40;94547.44;5114781;28;20073;-82
2022/08/25 11:01:47;;;;;;;12.18;3.22;;;;;;;26.78;42.46;94536.69;5097125;28;20058;-84
2022/08/25 11:04:19;;;;;;;19.95;3.72;;;;;;;26.82;42.67;94537.00;5080197;28;20032;-83
2022/08/25 11:06:57;;;;;;;15.50;3.80;;;;;;;26.77;43.42;94536.91;5080872;28;20031;-80
2022/08/25 11:09:26;;;;;;;21.55;3.88;;;;;;;26.70;43.18;94527.19;5080104;28;20412;-80
2022/08/25 11:12:41;;;;;;;24.52;3.80;;;;;;;26.75;42.96;94539.81;5080358;28;20027;-80
2022/08/25 11:15:09;;;;;;;21.83;3.90;;;;;;;26.74;42.65;94527.53;5074945;28;20424;-80
2022/08/25 11:18:08;;;;;;;20.90;3.70;;;;;;;26.72;42.94;94519.78;5115279;28;20028;-80
2022/08/25 11:20:40;;;;;;;23.05;4.07;;;;;;;26.68;43.11;94515.94;5036491;28;20053;-80
2022/08/25 11:23:11;;;;;;;14.05;3.95;;;;;;;26.78;43.54;94517.22;5080508;28;20045;-80
2022/08/25 11:25:41;;;;;;;22.30;3.72;;;;;;;26.80;42.05;94494.63;5096625;28;20114;-80
2022/08/25 11:28:17;;;;;;;20.85;4.05;;;;;;;26.87;41.72;94491.81;5096958;28;20481;-80
2022/08/25 11:30:43;;;;;;;25.00;5.07;;;;;;;26.94;43.49;94495.16;5080391;28;20077;-81
2022/08/25 11:33:12;;;;;;;19.27;4.25;;;;;;;27.06;42.84;94495.13;5096389;28;20054;-80
2022/08/25 11:35:47;;;;;;;26.90;3.70;;;;;;;26.99;40.15;94495.25;5079445;28;20032;-78
2022/08/25 11:38:34;;;;;;;24.85;4.03;;;;;;;26.74;39.66;94493.72;5096383;28;20032;-79
2022/08/25 11:41:27;;;;;;;20.60;3.83;;;;;;;26.50;41.23;94481.44;5114384;28;20039;-79
2022/08/25 11:44:04;;;;;;;18.92;4.00;;;;;;;26.57;43.29;94484.81;5095946;28;20044;-79